sensor_id;sensor_type;location;lat;lon;timestamp;P1;durP1;ratioP1;P2;durP2;ratioP2
74074;SDS011;62428;51.412;5.432;2023-06-22T00:00:55;3.33;;;1.60;;
74074;SDS011;62428;51.412;5.432;2023-06-22T00:03:21;3.92;;;1.98;;
74074;SDS011;62428;51.412;5.432;2023-06-22T00:05:48;6.50;;;2.13;;
74074;SDS011;62428;51.412;5.432;2023-06-22T00:08:13;5.20;;;2.20;;
74074;SDS011;62428;51.412;5.432;2023-06-22T00:10:39;2.90;;;1.93;;
74074;SDS011;62428;51.412;5.432;2023-06-22T00:13:05;3.35;;;1.90;;
74074;SDS011;62428;51.412;5.432;2023-06-22T00:15:32;3.97;;;2.20;;
74074;SDS011;62428;51.412;5.432;2023-06-22T00:17:58;3.67;;;2.07;;
74074;SDS011;62428;51.412;5.432;2023-06-22T00:20:24;3.53;;;2.42;;
74074;SDS011;62428;51.412;5.432;2023-06-22T00:22:56;3.65;;;2.08;;
74074;SDS011;62428;51.412;5.432;2023-06-22T00:25:23;4.30;;;2.33;;
74074;SDS011;62428;51.412;5.432;2023-06-22T00:27:48;8.27;;;2.60;;
74074;SDS011;62428;51.412;5.432;2023-06-22T00:30:18;5.80;;;2.15;;
74074;SDS011;62428;51.412;5.432;2023-06-22T00:32:44;3.65;;;2.63;;
74074;SDS011;62428;51.412;5.432;2023-06-22T00:35:11;4.20;;;2.53;;
74074;SDS011;62428;51.412;5.432;2023-06-22T00:37:38;4.88;;;2.72;;
74074;SDS011;62428;51.412;5.432;2023-06-22T00:40:07;3.78;;;2.20;;
74074;SDS011;62428;51.412;5.432;2023-06-22T00:42:37;3.50;;;2.50;;
74074;SDS011;62428;51.412;5.432;2023-06-22T00:45:03;3.55;;;2.60;;
74074;SDS011;62428;51.412;5.432;2023-06-22T00:47:29;5.93;;;3.37;;
74074;SDS011;62428;51.412;5.432;2023-06-22T00:49:54;7.18;;;3.97;;
74074;SDS011;62428;51.412;5.432;2023-06-22T00:52:20;9.97;;;5.93;;
74074;SDS011;62428;51.412;5.432;2023-06-22T00:54:52;8.23;;;5.72;;
74074;SDS011;62428;51.412;5.432;2023-06-22T00:57:18;9.67;;;6.17;;
74074;SDS011;62428;51.412;5.432;2023-06-22T00:59:45;9.40;;;6.10;;
74074;SDS011;62428;51.412;5.432;2023-06-22T01:02:12;11.75;;;6.47;;
74074;SDS011;62428;51.412;5.432;2023-06-22T01:04:38;12.80;;;6.93;;
74074;SDS011;62428;51.412;5.432;2023-06-22T01:10:00;11.82;;;6.25;;
74074;SDS011;62428;51.412;5.432;2023-06-22T01:12:40;12.73;;;5.95;;
74074;SDS011;62428;51.412;5.432;2023-06-22T01:17:38;14.43;;;6.30;;
74074;SDS011;62428;51.412;5.432;2023-06-22T01:20:06;8.93;;;5.88;;
74074;SDS011;62428;51.412;5.432;2023-06-22T01:22:38;12.98;;;6.18;;
74074;SDS011;62428;51.412;5.432;2023-06-22T01:25:19;9.70;;;6.32;;
74074;SDS011;62428;51.412;5.432;2023-06-22T01:30:54;10.83;;;6.27;;
74074;SDS011;62428;51.412;5.432;2023-06-22T01:33:28;9.52;;;5.93;;
74074;SDS011;62428;51.412;5.432;2023-06-22T01:35:56;14.20;;;6.43;;
74074;SDS011;62428;51.412;5.432;2023-06-22T01:38:21;10.57;;;6.60;;
74074;SDS011;62428;51.412;5.432;2023-06-22T01:40:47;8.00;;;5.90;;
74074;SDS011;62428;51.412;5.432;2023-06-22T01:43:14;8.70;;;5.43;;
74074;SDS011;62428;51.412;5.432;2023-06-22T01:45:40;8.97;;;5.73;;
74074;SDS011;62428;51.412;5.432;2023-06-22T01:48:07;7.97;;;5.95;;
74074;SDS011;62428;51.412;5.432;2023-06-22T01:50:33;11.25;;;6.20;;
74074;SDS011;62428;51.412;5.432;2023-06-22T01:52:58;12.90;;;6.30;;
74074;SDS011;62428;51.412;5.432;2023-06-22T01:55:24;10.47;;;5.97;;
74074;SDS011;62428;51.412;5.432;2023-06-22T01:57:49;10.20;;;5.87;;
74074;SDS011;62428;51.412;5.432;2023-06-22T02:00:17;11.35;;;6.32;;
74074;SDS011;62428;51.412;5.432;2023-06-22T02:05:14;8.85;;;5.82;;
74074;SDS011;62428;51.412;5.432;2023-06-22T02:08:07;9.52;;;5.97;;
74074;SDS011;62428;51.412;5.432;2023-06-22T02:10:36;10.52;;;6.70;;
74074;SDS011;62428;51.412;5.432;2023-06-22T02:13:05;8.35;;;5.88;;
74074;SDS011;62428;51.412;5.432;2023-06-22T02:15:31;12.00;;;6.40;;
74074;SDS011;62428;51.412;5.432;2023-06-22T02:17:57;10.10;;;6.32;;
74074;SDS011;62428;51.412;5.432;2023-06-22T02:20:23;8.23;;;5.93;;
74074;SDS011;62428;51.412;5.432;2023-06-22T02:22:49;10.30;;;5.77;;
74074;SDS011;62428;51.412;5.432;2023-06-22T02:25:15;10.32;;;6.18;;
74074;SDS011;62428;51.412;5.432;2023-06-22T02:27:40;9.87;;;5.70;;
74074;SDS011;62428;51.412;5.432;2023-06-22T02:30:07;11.17;;;5.90;;
74074;SDS011;62428;51.412;5.432;2023-06-22T02:32:33;10.07;;;6.35;;
74074;SDS011;62428;51.412;5.432;2023-06-22T02:34:59;9.37;;;6.80;;
74074;SDS011;62428;51.412;5.432;2023-06-22T02:37:24;9.45;;;6.43;;
74074;SDS011;62428;51.412;5.432;2023-06-22T02:39:50;7.77;;;5.97;;
74074;SDS011;62428;51.412;5.432;2023-06-22T02:42:15;9.37;;;6.20;;
74074;SDS011;62428;51.412;5.432;2023-06-22T02:44:45;10.43;;;6.38;;
74074;SDS011;62428;51.412;5.432;2023-06-22T02:47:10;12.37;;;6.97;;
74074;SDS011;62428;51.412;5.432;2023-06-22T02:49:36;9.27;;;5.93;;
74074;SDS011;62428;51.412;5.432;2023-06-22T02:52:01;11.50;;;6.33;;
74074;SDS011;62428;51.412;5.432;2023-06-22T02:54:27;10.17;;;6.70;;
74074;SDS011;62428;51.412;5.432;2023-06-22T02:56:52;9.47;;;6.57;;
74074;SDS011;62428;51.412;5.432;2023-06-22T02:59:17;10.03;;;6.77;;
74074;SDS011;62428;51.412;5.432;2023-06-22T03:01:48;11.55;;;8.02;;
74074;SDS011;62428;51.412;5.432;2023-06-22T03:04:15;11.37;;;6.73;;
74074;SDS011;62428;51.412;5.432;2023-06-22T03:06:40;11.18;;;7.22;;
74074;SDS011;62428;51.412;5.432;2023-06-22T03:09:06;10.70;;;6.83;;
74074;SDS011;62428;51.412;5.432;2023-06-22T03:11:32;11.98;;;6.80;;
74074;SDS011;62428;51.412;5.432;2023-06-22T03:13:58;13.50;;;7.38;;
74074;SDS011;62428;51.412;5.432;2023-06-22T03:16:24;11.03;;;6.80;;
74074;SDS011;62428;51.412;5.432;2023-06-22T03:18:50;11.07;;;6.65;;
74074;SDS011;62428;51.412;5.432;2023-06-22T03:21:15;11.73;;;6.80;;
74074;SDS011;62428;51.412;5.432;2023-06-22T03:23:42;14.98;;;7.07;;
74074;SDS011;62428;51.412;5.432;2023-06-22T03:26:08;11.57;;;7.10;;
74074;SDS011;62428;51.412;5.432;2023-06-22T03:28:34;12.70;;;7.70;;
74074;SDS011;62428;51.412;5.432;2023-06-22T03:30:59;11.77;;;8.10;;
74074;SDS011;62428;51.412;5.432;2023-06-22T03:33:24;11.82;;;7.65;;
74074;SDS011;62428;51.412;5.432;2023-06-22T03:35:50;16.67;;;7.70;;
74074;SDS011;62428;51.412;5.432;2023-06-22T03:38:16;12.70;;;7.80;;
74074;SDS011;62428;51.412;5.432;2023-06-22T03:40:42;12.20;;;7.60;;
74074;SDS011;62428;51.412;5.432;2023-06-22T03:43:07;10.97;;;8.37;;
74074;SDS011;62428;51.412;5.432;2023-06-22T03:45:32;12.37;;;8.43;;
74074;SDS011;62428;51.412;5.432;2023-06-22T03:47:58;11.70;;;8.57;;
74074;SDS011;62428;51.412;5.432;2023-06-22T03:50:23;13.10;;;8.10;;
74074;SDS011;62428;51.412;5.432;2023-06-22T03:52:48;11.93;;;7.90;;
74074;SDS011;62428;51.412;5.432;2023-06-22T03:55:14;13.50;;;8.13;;
74074;SDS011;62428;51.412;5.432;2023-06-22T03:57:39;12.03;;;8.03;;
74074;SDS011;62428;51.412;5.432;2023-06-22T04:00:05;12.27;;;8.20;;
74074;SDS011;62428;51.412;5.432;2023-06-22T04:02:31;12.45;;;7.93;;
74074;SDS011;62428;51.412;5.432;2023-06-22T04:04:56;13.07;;;7.77;;
74074;SDS011;62428;51.412;5.432;2023-06-22T04:07:21;12.70;;;7.20;;
74074;SDS011;62428;51.412;5.432;2023-06-22T04:09:47;11.18;;;6.47;;
74074;SDS011;62428;51.412;5.432;2023-06-22T04:12:12;8.47;;;6.20;;
74074;SDS011;62428;51.412;5.432;2023-06-22T04:14:38;12.23;;;7.47;;
74074;SDS011;62428;51.412;5.432;2023-06-22T04:17:03;10.83;;;6.93;;
74074;SDS011;62428;51.412;5.432;2023-06-22T04:19:29;12.93;;;8.43;;
74074;SDS011;62428;51.412;5.432;2023-06-22T04:21:54;12.03;;;8.27;;
74074;SDS011;62428;51.412;5.432;2023-06-22T04:24:20;14.23;;;8.20;;
74074;SDS011;62428;51.412;5.432;2023-06-22T04:26:45;14.30;;;8.35;;
74074;SDS011;62428;51.412;5.432;2023-06-22T04:29:12;12.40;;;8.37;;
74074;SDS011;62428;51.412;5.432;2023-06-22T04:31:38;11.63;;;7.90;;
74074;SDS011;62428;51.412;5.432;2023-06-22T04:34:04;13.52;;;8.48;;
74074;SDS011;62428;51.412;5.432;2023-06-22T04:39:03;15.77;;;9.48;;
74074;SDS011;62428;51.412;5.432;2023-06-22T04:41:34;13.10;;;8.63;;
74074;SDS011;62428;51.412;5.432;2023-06-22T04:46:35;13.25;;;9.70;;
74074;SDS011;62428;51.412;5.432;2023-06-22T04:49:03;17.13;;;10.27;;
74074;SDS011;62428;51.412;5.432;2023-06-22T04:51:36;15.13;;;9.45;;
74074;SDS011;62428;51.412;5.432;2023-06-22T04:54:06;16.50;;;10.00;;
74074;SDS011;62428;51.412;5.432;2023-06-22T04:56:32;15.40;;;10.57;;
74074;SDS011;62428;51.412;5.432;2023-06-22T04:58:57;17.15;;;10.45;;
74074;SDS011;62428;51.412;5.432;2023-06-22T05:01:23;14.90;;;10.13;;
74074;SDS011;62428;51.412;5.432;2023-06-22T05:03:49;15.77;;;10.27;;
74074;SDS011;62428;51.412;5.432;2023-06-22T05:06:14;19.38;;;10.60;;
74074;SDS011;62428;51.412;5.432;2023-06-22T05:08:40;15.85;;;10.77;;
74074;SDS011;62428;51.412;5.432;2023-06-22T05:11:05;16.27;;;11.23;;
74074;SDS011;62428;51.412;5.432;2023-06-22T05:13:31;15.73;;;10.87;;
74074;SDS011;62428;51.412;5.432;2023-06-22T05:15:57;15.30;;;11.48;;
74074;SDS011;62428;51.412;5.432;2023-06-22T05:18:29;14.60;;;11.45;;
74074;SDS011;62428;51.412;5.432;2023-06-22T05:20:55;17.02;;;11.70;;
74074;SDS011;62428;51.412;5.432;2023-06-22T05:23:21;17.33;;;10.90;;
74074;SDS011;62428;51.412;5.432;2023-06-22T05:25:46;16.80;;;11.10;;
74074;SDS011;62428;51.412;5.432;2023-06-22T05:28:11;21.30;;;12.10;;
74074;SDS011;62428;51.412;5.432;2023-06-22T05:30:37;19.73;;;11.45;;
74074;SDS011;62428;51.412;5.432;2023-06-22T05:33:03;17.93;;;11.93;;
74074;SDS011;62428;51.412;5.432;2023-06-22T05:35:28;17.60;;;11.07;;
74074;SDS011;62428;51.412;5.432;2023-06-22T05:37:54;18.80;;;11.82;;
74074;SDS011;62428;51.412;5.432;2023-06-22T05:40:20;19.55;;;12.15;;
74074;SDS011;62428;51.412;5.432;2023-06-22T05:42:46;17.63;;;11.27;;
74074;SDS011;62428;51.412;5.432;2023-06-22T05:45:11;20.40;;;13.07;;
74074;SDS011;62428;51.412;5.432;2023-06-22T05:47:36;16.77;;;10.70;;
74074;SDS011;62428;51.412;5.432;2023-06-22T05:50:02;17.87;;;11.90;;
74074;SDS011;62428;51.412;5.432;2023-06-22T05:52:31;19.20;;;11.48;;
74074;SDS011;62428;51.412;5.432;2023-06-22T05:54:57;16.60;;;11.77;;
74074;SDS011;62428;51.412;5.432;2023-06-22T05:57:22;18.87;;;11.80;;
74074;SDS011;62428;51.412;5.432;2023-06-22T05:59:48;16.70;;;11.97;;
74074;SDS011;62428;51.412;5.432;2023-06-22T06:02:13;18.37;;;11.60;;
74074;SDS011;62428;51.412;5.432;2023-06-22T06:04:39;17.42;;;12.15;;
74074;SDS011;62428;51.412;5.432;2023-06-22T06:07:04;20.00;;;11.97;;
74074;SDS011;62428;51.412;5.432;2023-06-22T06:09:30;19.37;;;11.70;;
74074;SDS011;62428;51.412;5.432;2023-06-22T06:11:55;17.63;;;11.60;;
74074;SDS011;62428;51.412;5.432;2023-06-22T06:14:21;16.65;;;11.63;;
74074;SDS011;62428;51.412;5.432;2023-06-22T06:16:48;20.37;;;12.47;;
74074;SDS011;62428;51.412;5.432;2023-06-22T06:19:14;18.13;;;12.25;;
74074;SDS011;62428;51.412;5.432;2023-06-22T06:21:39;19.40;;;12.33;;
74074;SDS011;62428;51.412;5.432;2023-06-22T06:24:05;19.03;;;12.27;;
74074;SDS011;62428;51.412;5.432;2023-06-22T06:26:30;19.80;;;12.30;;
74074;SDS011;62428;51.412;5.432;2023-06-22T06:28:58;21.02;;;12.80;;
74074;SDS011;62428;51.412;5.432;2023-06-22T06:31:24;22.97;;;12.77;;
74074;SDS011;62428;51.412;5.432;2023-06-22T06:33:52;20.35;;;12.43;;
74074;SDS011;62428;51.412;5.432;2023-06-22T06:36:19;19.55;;;13.30;;
74074;SDS011;62428;51.412;5.432;2023-06-22T06:38:44;19.07;;;13.03;;
74074;SDS011;62428;51.412;5.432;2023-06-22T06:41:09;18.87;;;13.10;;
74074;SDS011;62428;51.412;5.432;2023-06-22T06:43:35;18.57;;;12.90;;
74074;SDS011;62428;51.412;5.432;2023-06-22T06:46:00;21.63;;;13.23;;
74074;SDS011;62428;51.412;5.432;2023-06-22T06:48:25;18.13;;;12.33;;
74074;SDS011;62428;51.412;5.432;2023-06-22T06:50:51;18.47;;;13.30;;
74074;SDS011;62428;51.412;5.432;2023-06-22T06:53:16;20.43;;;13.33;;
74074;SDS011;62428;51.412;5.432;2023-06-22T06:55:41;19.53;;;12.27;;
74074;SDS011;62428;51.412;5.432;2023-06-22T06:58:07;18.27;;;12.07;;
74074;SDS011;62428;51.412;5.432;2023-06-22T07:00:33;17.98;;;12.48;;
74074;SDS011;62428;51.412;5.432;2023-06-22T07:02:58;22.27;;;13.45;;
74074;SDS011;62428;51.412;5.432;2023-06-22T07:05:24;23.20;;;12.13;;
74074;SDS011;62428;51.412;5.432;2023-06-22T07:07:49;19.30;;;12.40;;
74074;SDS011;62428;51.412;5.432;2023-06-22T07:10:15;19.90;;;12.80;;
74074;SDS011;62428;51.412;5.432;2023-06-22T07:12:40;19.02;;;12.68;;
74074;SDS011;62428;51.412;5.432;2023-06-22T07:15:06;21.00;;;12.63;;
74074;SDS011;62428;51.412;5.432;2023-06-22T07:17:34;17.55;;;11.88;;
74074;SDS011;62428;51.412;5.432;2023-06-22T07:19:59;18.20;;;12.90;;
74074;SDS011;62428;51.412;5.432;2023-06-22T07:22:26;24.38;;;13.52;;
74074;SDS011;62428;51.412;5.432;2023-06-22T07:24:51;19.83;;;11.80;;
74074;SDS011;62428;51.412;5.432;2023-06-22T07:27:17;18.57;;;12.23;;
74074;SDS011;62428;51.412;5.432;2023-06-22T07:29:44;20.45;;;11.82;;
74074;SDS011;62428;51.412;5.432;2023-06-22T07:32:09;19.73;;;11.57;;
74074;SDS011;62428;51.412;5.432;2023-06-22T07:34:34;18.88;;;11.07;;
74074;SDS011;62428;51.412;5.432;2023-06-22T07:37:00;18.30;;;10.87;;
74074;SDS011;62428;51.412;5.432;2023-06-22T07:39:26;16.00;;;11.57;;
74074;SDS011;62428;51.412;5.432;2023-06-22T07:41:51;19.40;;;13.05;;
74074;SDS011;62428;51.412;5.432;2023-06-22T07:44:17;19.65;;;11.75;;
74074;SDS011;62428;51.412;5.432;2023-06-22T07:46:43;16.37;;;11.23;;
74074;SDS011;62428;51.412;5.432;2023-06-22T07:49:08;17.00;;;11.53;;
74074;SDS011;62428;51.412;5.432;2023-06-22T07:51:34;18.53;;;12.57;;
74074;SDS011;62428;51.412;5.432;2023-06-22T07:53:59;18.23;;;12.33;;
74074;SDS011;62428;51.412;5.432;2023-06-22T07:56:24;19.10;;;12.20;;
74074;SDS011;62428;51.412;5.432;2023-06-22T07:58:50;17.87;;;12.13;;
74074;SDS011;62428;51.412;5.432;2023-06-22T08:01:15;18.07;;;12.13;;
74074;SDS011;62428;51.412;5.432;2023-06-22T08:03:41;21.30;;;12.45;;
74074;SDS011;62428;51.412;5.432;2023-06-22T08:06:07;19.10;;;10.27;;
74074;SDS011;62428;51.412;5.432;2023-06-22T08:08:35;19.88;;;12.35;;
74074;SDS011;62428;51.412;5.432;2023-06-22T08:11:03;19.33;;;12.18;;
74074;SDS011;62428;51.412;5.432;2023-06-22T08:13:29;19.48;;;12.40;;
74074;SDS011;62428;51.412;5.432;2023-06-22T08:15:54;21.20;;;12.50;;
74074;SDS011;62428;51.412;5.432;2023-06-22T08:18:20;18.77;;;12.33;;
74074;SDS011;62428;51.412;5.432;2023-06-22T08:20:45;20.87;;;12.57;;
74074;SDS011;62428;51.412;5.432;2023-06-22T08:23:10;22.70;;;12.37;;
74074;SDS011;62428;51.412;5.432;2023-06-22T08:25:36;18.27;;;11.67;;
74074;SDS011;62428;51.412;5.432;2023-06-22T08:28:02;15.00;;;11.43;;
74074;SDS011;62428;51.412;5.432;2023-06-22T08:30:28;18.23;;;11.90;;
74074;SDS011;62428;51.412;5.432;2023-06-22T08:32:54;18.87;;;12.90;;
74074;SDS011;62428;51.412;5.432;2023-06-22T08:35:20;18.13;;;11.52;;
74074;SDS011;62428;51.412;5.432;2023-06-22T08:37:47;16.30;;;11.38;;
74074;SDS011;62428;51.412;5.432;2023-06-22T08:40:17;15.90;;;11.33;;
74074;SDS011;62428;51.412;5.432;2023-06-22T08:42:45;19.27;;;12.70;;
74074;SDS011;62428;51.412;5.432;2023-06-22T08:45:11;20.70;;;13.07;;
74074;SDS011;62428;51.412;5.432;2023-06-22T08:47:37;17.25;;;10.80;;
74074;SDS011;62428;51.412;5.432;2023-06-22T08:50:02;19.00;;;11.70;;
74074;SDS011;62428;51.412;5.432;2023-06-22T08:52:28;19.58;;;12.30;;
74074;SDS011;62428;51.412;5.432;2023-06-22T08:54:54;21.20;;;12.33;;
74074;SDS011;62428;51.412;5.432;2023-06-22T08:57:20;17.90;;;12.97;;
74074;SDS011;62428;51.412;5.432;2023-06-22T08:59:46;18.38;;;12.15;;
74074;SDS011;62428;51.412;5.432;2023-06-22T09:02:11;19.03;;;12.63;;
74074;SDS011;62428;51.412;5.432;2023-06-22T09:04:36;18.17;;;11.33;;
74074;SDS011;62428;51.412;5.432;2023-06-22T09:07:02;17.13;;;12.13;;
74074;SDS011;62428;51.412;5.432;2023-06-22T09:09:28;20.77;;;13.27;;
74074;SDS011;62428;51.412;5.432;2023-06-22T09:11:53;18.07;;;12.70;;
74074;SDS011;62428;51.412;5.432;2023-06-22T09:14:19;17.67;;;12.25;;
74074;SDS011;62428;51.412;5.432;2023-06-22T09:16:44;17.93;;;12.80;;
74074;SDS011;62428;51.412;5.432;2023-06-22T09:19:09;16.80;;;12.00;;
74074;SDS011;62428;51.412;5.432;2023-06-22T09:21:35;20.00;;;11.90;;
74074;SDS011;62428;51.412;5.432;2023-06-22T09:24:01;18.25;;;12.48;;
74074;SDS011;62428;51.412;5.432;2023-06-22T09:26:27;17.83;;;12.40;;
74074;SDS011;62428;51.412;5.432;2023-06-22T09:28:52;16.60;;;11.67;;
74074;SDS011;62428;51.412;5.432;2023-06-22T09:31:18;16.30;;;11.43;;
74074;SDS011;62428;51.412;5.432;2023-06-22T09:33:50;18.20;;;11.55;;
74074;SDS011;62428;51.412;5.432;2023-06-22T09:36:17;15.15;;;11.50;;
74074;SDS011;62428;51.412;5.432;2023-06-22T09:38:42;17.87;;;12.03;;
74074;SDS011;62428;51.412;5.432;2023-06-22T09:41:07;17.10;;;11.47;;
74074;SDS011;62428;51.412;5.432;2023-06-22T09:43:33;16.73;;;11.87;;
74074;SDS011;62428;51.412;5.432;2023-06-22T09:46:01;18.60;;;11.65;;
74074;SDS011;62428;51.412;5.432;2023-06-22T09:48:27;18.85;;;12.40;;
74074;SDS011;62428;51.412;5.432;2023-06-22T09:50:54;19.90;;;11.00;;
74074;SDS011;62428;51.412;5.432;2023-06-22T09:53:19;20.65;;;11.27;;
74074;SDS011;62428;51.412;5.432;2023-06-22T09:55:45;19.17;;;11.70;;
74074;SDS011;62428;51.412;5.432;2023-06-22T09:58:10;18.80;;;11.47;;
74074;SDS011;62428;51.412;5.432;2023-06-22T10:00:35;19.53;;;10.63;;
74074;SDS011;62428;51.412;5.432;2023-06-22T10:03:01;19.60;;;11.43;;
74074;SDS011;62428;51.412;5.432;2023-06-22T10:05:26;18.80;;;11.47;;
74074;SDS011;62428;51.412;5.432;2023-06-22T10:07:52;16.73;;;11.13;;
74074;SDS011;62428;51.412;5.432;2023-06-22T10:10:17;20.90;;;11.33;;
74074;SDS011;62428;51.412;5.432;2023-06-22T10:12:45;16.60;;;11.70;;
74074;SDS011;62428;51.412;5.432;2023-06-22T10:15:11;14.93;;;10.77;;
74074;SDS011;62428;51.412;5.432;2023-06-22T10:17:37;21.43;;;11.80;;
74074;SDS011;62428;51.412;5.432;2023-06-22T10:20:02;17.20;;;11.23;;
74074;SDS011;62428;51.412;5.432;2023-06-22T10:22:35;17.33;;;10.20;;
74074;SDS011;62428;51.412;5.432;2023-06-22T10:25:01;18.40;;;10.20;;
74074;SDS011;62428;51.412;5.432;2023-06-22T10:27:26;15.50;;;9.82;;
74074;SDS011;62428;51.412;5.432;2023-06-22T10:29:51;16.30;;;11.40;;
74074;SDS011;62428;51.412;5.432;2023-06-22T10:32:17;14.50;;;9.83;;
74074;SDS011;62428;51.412;5.432;2023-06-22T10:34:42;14.87;;;11.00;;
74074;SDS011;62428;51.412;5.432;2023-06-22T10:37:08;18.27;;;11.93;;
74074;SDS011;62428;51.412;5.432;2023-06-22T10:39:33;15.80;;;11.03;;
74074;SDS011;62428;51.412;5.432;2023-06-22T10:41:58;16.23;;;11.40;;
74074;SDS011;62428;51.412;5.432;2023-06-22T10:44:24;16.47;;;11.30;;
74074;SDS011;62428;51.412;5.432;2023-06-22T10:46:49;26.23;;;13.33;;
74074;SDS011;62428;51.412;5.432;2023-06-22T10:49:14;21.57;;;13.80;;
74074;SDS011;62428;51.412;5.432;2023-06-22T10:51:40;25.63;;;14.53;;
74074;SDS011;62428;51.412;5.432;2023-06-22T10:54:06;24.48;;;14.00;;
74074;SDS011;62428;51.412;5.432;2023-06-22T10:56:31;26.43;;;15.77;;
74074;SDS011;62428;51.412;5.432;2023-06-22T10:58:58;28.27;;;15.82;;
74074;SDS011;62428;51.412;5.432;2023-06-22T11:01:24;26.20;;;15.93;;
74074;SDS011;62428;51.412;5.432;2023-06-22T11:03:49;25.67;;;16.00;;
74074;SDS011;62428;51.412;5.432;2023-06-22T11:06:14;25.60;;;15.32;;
74074;SDS011;62428;51.412;5.432;2023-06-22T11:08:40;29.13;;;16.07;;
74074;SDS011;62428;51.412;5.432;2023-06-22T11:11:09;35.30;;;17.75;;
74074;SDS011;62428;51.412;5.432;2023-06-22T11:13:34;29.33;;;16.87;;
74074;SDS011;62428;51.412;5.432;2023-06-22T11:15:59;26.67;;;16.40;;
74074;SDS011;62428;51.412;5.432;2023-06-22T11:18:25;31.10;;;17.37;;
74074;SDS011;62428;51.412;5.432;2023-06-22T11:20:50;38.17;;;17.20;;
74074;SDS011;62428;51.412;5.432;2023-06-22T11:23:16;29.67;;;16.60;;
74074;SDS011;62428;51.412;5.432;2023-06-22T11:25:41;28.13;;;15.93;;
74074;SDS011;62428;51.412;5.432;2023-06-22T11:28:07;25.85;;;16.95;;
74074;SDS011;62428;51.412;5.432;2023-06-22T11:30:33;34.00;;;18.67;;
74074;SDS011;62428;51.412;5.432;2023-06-22T11:32:59;36.40;;;18.92;;
74074;SDS011;62428;51.412;5.432;2023-06-22T11:35:25;34.67;;;18.63;;
74074;SDS011;62428;51.412;5.432;2023-06-22T11:37:50;31.48;;;18.63;;
74074;SDS011;62428;51.412;5.432;2023-06-22T11:40:16;31.67;;;19.07;;
74074;SDS011;62428;51.412;5.432;2023-06-22T11:42:42;30.65;;;18.48;;
74074;SDS011;62428;51.412;5.432;2023-06-22T11:45:08;29.02;;;18.50;;
74074;SDS011;62428;51.412;5.432;2023-06-22T11:47:33;29.10;;;18.57;;
74074;SDS011;62428;51.412;5.432;2023-06-22T11:49:59;30.23;;;18.50;;
74074;SDS011;62428;51.412;5.432;2023-06-22T11:52:24;28.10;;;18.67;;
74074;SDS011;62428;51.412;5.432;2023-06-22T11:54:51;30.50;;;19.27;;
74074;SDS011;62428;51.412;5.432;2023-06-22T11:57:16;30.43;;;19.80;;
74074;SDS011;62428;51.412;5.432;2023-06-22T11:59:42;30.35;;;19.90;;
74074;SDS011;62428;51.412;5.432;2023-06-22T12:02:07;30.83;;;20.67;;
74074;SDS011;62428;51.412;5.432;2023-06-22T12:04:34;32.33;;;20.03;;
74074;SDS011;62428;51.412;5.432;2023-06-22T12:06:59;29.33;;;20.58;;
74074;SDS011;62428;51.412;5.432;2023-06-22T12:09:24;29.70;;;19.60;;
74074;SDS011;62428;51.412;5.432;2023-06-22T12:11:50;32.43;;;21.27;;
74074;SDS011;62428;51.412;5.432;2023-06-22T12:14:15;26.27;;;19.27;;
74074;SDS011;62428;51.412;5.432;2023-06-22T12:16:40;28.33;;;19.30;;
74074;SDS011;62428;51.412;5.432;2023-06-22T12:19:06;25.97;;;19.00;;
74074;SDS011;62428;51.412;5.432;2023-06-22T12:21:31;25.50;;;18.87;;
74074;SDS011;62428;51.412;5.432;2023-06-22T12:23:57;28.90;;;19.67;;
74074;SDS011;62428;51.412;5.432;2023-06-22T12:26:22;25.03;;;18.67;;
74074;SDS011;62428;51.412;5.432;2023-06-22T12:28:47;32.80;;;21.00;;
74074;SDS011;62428;51.412;5.432;2023-06-22T12:31:13;28.17;;;20.10;;
74074;SDS011;62428;51.412;5.432;2023-06-22T12:33:39;35.67;;;21.93;;
74074;SDS011;62428;51.412;5.432;2023-06-22T12:36:04;27.60;;;20.50;;
74074;SDS011;62428;51.412;5.432;2023-06-22T12:38:30;30.30;;;21.33;;
74074;SDS011;62428;51.412;5.432;2023-06-22T12:40:55;32.47;;;22.57;;
74074;SDS011;62428;51.412;5.432;2023-06-22T12:43:21;30.37;;;22.27;;
74074;SDS011;62428;51.412;5.432;2023-06-22T12:45:46;30.60;;;21.40;;
74074;SDS011;62428;51.412;5.432;2023-06-22T12:48:11;31.50;;;21.70;;
74074;SDS011;62428;51.412;5.432;2023-06-22T12:50:37;28.55;;;20.20;;
74074;SDS011;62428;51.412;5.432;2023-06-22T12:53:03;26.60;;;19.13;;
74074;SDS011;62428;51.412;5.432;2023-06-22T12:55:29;30.13;;;20.80;;
74074;SDS011;62428;51.412;5.432;2023-06-22T12:57:55;29.60;;;20.13;;
74074;SDS011;62428;51.412;5.432;2023-06-22T13:00:20;29.55;;;19.48;;
74074;SDS011;62428;51.412;5.432;2023-06-22T13:02:46;27.23;;;17.87;;
74074;SDS011;62428;51.412;5.432;2023-06-22T13:05:11;24.13;;;17.73;;
74074;SDS011;62428;51.412;5.432;2023-06-22T13:07:37;25.83;;;17.88;;
74074;SDS011;62428;51.412;5.432;2023-06-22T13:10:02;25.03;;;16.67;;
74074;SDS011;62428;51.412;5.432;2023-06-22T13:12:28;24.13;;;17.33;;
74074;SDS011;62428;51.412;5.432;2023-06-22T13:14:53;26.02;;;17.70;;
74074;SDS011;62428;51.412;5.432;2023-06-22T13:17:19;24.67;;;16.53;;
74074;SDS011;62428;51.412;5.432;2023-06-22T13:19:44;26.10;;;18.07;;
74074;SDS011;62428;51.412;5.432;2023-06-22T13:22:29;25.93;;;16.97;;
74074;SDS011;62428;51.412;5.432;2023-06-22T13:24:54;24.17;;;17.23;;
74074;SDS011;62428;51.412;5.432;2023-06-22T13:27:20;23.27;;;16.50;;
74074;SDS011;62428;51.412;5.432;2023-06-22T13:29:45;25.77;;;17.13;;
74074;SDS011;62428;51.412;5.432;2023-06-22T13:32:11;21.50;;;15.90;;
74074;SDS011;62428;51.412;5.432;2023-06-22T13:34:36;24.40;;;16.37;;
74074;SDS011;62428;51.412;5.432;2023-06-22T13:37:01;22.20;;;16.10;;
74074;SDS011;62428;51.412;5.432;2023-06-22T13:39:27;21.87;;;16.40;;
74074;SDS011;62428;51.412;5.432;2023-06-22T13:41:52;20.47;;;16.00;;
74074;SDS011;62428;51.412;5.432;2023-06-22T13:44:18;20.50;;;15.60;;
74074;SDS011;62428;51.412;5.432;2023-06-22T13:46:43;21.33;;;15.90;;
74074;SDS011;62428;51.412;5.432;2023-06-22T13:49:08;22.77;;;15.47;;
74074;SDS011;62428;51.412;5.432;2023-06-22T13:51:35;20.83;;;15.10;;
74074;SDS011;62428;51.412;5.432;2023-06-22T13:54:01;20.00;;;15.23;;
74074;SDS011;62428;51.412;5.432;2023-06-22T13:56:26;17.70;;;14.37;;
74074;SDS011;62428;51.412;5.432;2023-06-22T13:58:52;20.02;;;14.32;;
74074;SDS011;62428;51.412;5.432;2023-06-22T14:01:17;30.60;;;13.90;;
74074;SDS011;62428;51.412;5.432;2023-06-22T14:03:42;19.43;;;14.23;;
74074;SDS011;62428;51.412;5.432;2023-06-22T14:06:10;21.02;;;14.02;;
74074;SDS011;62428;51.412;5.432;2023-06-22T14:08:36;21.90;;;14.10;;
74074;SDS011;62428;51.412;5.432;2023-06-22T14:11:02;21.23;;;13.75;;
74074;SDS011;62428;51.412;5.432;2023-06-22T14:13:27;18.30;;;14.63;;
74074;SDS011;62428;51.412;5.432;2023-06-22T14:15:53;23.57;;;14.10;;
74074;SDS011;62428;51.412;5.432;2023-06-22T14:18:19;19.83;;;13.40;;
74074;SDS011;62428;51.412;5.432;2023-06-22T14:20:44;23.38;;;15.82;;
74074;SDS011;62428;51.412;5.432;2023-06-22T14:23:10;23.13;;;14.50;;
74074;SDS011;62428;51.412;5.432;2023-06-22T14:25:35;22.50;;;15.23;;
74074;SDS011;62428;51.412;5.432;2023-06-22T14:28:00;22.53;;;14.57;;
74074;SDS011;62428;51.412;5.432;2023-06-22T14:30:26;22.43;;;14.73;;
74074;SDS011;62428;51.412;5.432;2023-06-22T14:32:51;21.33;;;14.70;;
74074;SDS011;62428;51.412;5.432;2023-06-22T14:35:16;19.20;;;14.85;;
74074;SDS011;62428;51.412;5.432;2023-06-22T14:37:42;23.77;;;15.97;;